Time;durP1;ratioP1;P1;durP2;ratioP2;P2;SDS_P1;SDS_P2;PMS_P1;PMS_P2;Temp;Humidity;BMP_temperature;BMP_pressure;BME280_temperature;BME280_humidity;BME280_pressure;Samples;Min_cycle;Max_cycle;Signal;HPM_P1;HPM_P2
2020/12/01 00:00:42;;;;;;;34.47;19.65;;;;;;;;;;6233825;28;20429;-72
2020/12/01 00:03:44;;;;;;;30.13;19.65;;;;;;;;;;6230724;28;20045;-71
2020/12/01 00:06:46;;;;;;;30.30;19.15;;;;;;;;;;6219215;28;20141;-70
2020/12/01 00:09:47;;;;;;;33.53;20.38;;;;;;;;;;6212018;28;20065;-70
2020/12/01 00:12:49;;;;;;;474.73;243.52;;;;;;;;;;6229448;28;20087;-70
2020/12/01 00:15:50;;;;;;;58.03;34.95;;;;;;;;;;6234477;28;20051;-71
2020/12/01 00:18:52;;;;;;;228.48;109.57;;;;;;;;;;6236844;28;20130;-72
2020/12/01 00:21:53;;;;;;;57.22;33.15;;;;;;;;;;6209790;28;20163;-73
2020/12/01 00:24:54;;;;;;;216.10;98.07;;;;;;;;;;6214236;28;20161;-72
2020/12/01 00:27:55;;;;;;;140.75;74.90;;;;;;;;;;6213095;28;20046;-70
2020/12/01 00:30:58;;;;;;;44.78;28.08;;;;;;;;;;6214269;28;20041;-70
2020/12/01 00:33:59;;;;;;;32.80;19.98;;;;;;;;;;6220092;28;20618;-70
2020/12/01 00:37:03;;;;;;;29.27;19.98;;;;;;;;;;6212476;28;20124;-70
2020/12/01 00:40:04;;;;;;;33.45;19.65;;;;;;;;;;6213558;28;20045;-70
2020/12/01 00:43:05;;;;;;;30.17;19.42;;;;;;;;;;6213257;28;20703;-70
2020/12/01 00:46:06;;;;;;;31.42;20.20;;;;;;;;;;6232965;28;20183;-70
2020/12/01 00:49:08;;;;;;;31.05;19.95;;;;;;;;;;6235875;28;20094;-69
2020/12/01 00:52:09;;;;;;;31.45;19.88;;;;;;;;;;6212762;28;20139;-70
2020/12/01 00:55:10;;;;;;;32.97;20.67;;;;;;;;;;6207996;28;20938;-70
2020/12/01 00:58:12;;;;;;;33.38;21.05;;;;;;;;;;6222838;28;20072;-72
2020/12/01 01:01:13;;;;;;;30.35;19.70;;;;;;;;;;6231799;28;20058;-71
2020/12/01 01:04:15;;;;;;;29.85;19.75;;;;;;;;;;6245392;28;20049;-71
2020/12/01 01:07:18;;;;;;;29.63;18.83;;;;;;;;;;5540149;28;10000202;-71
2020/12/01 01:10:23;;;;;;;29.92;19.88;;;;;;;;;;6242111;28;20045;-69
2020/12/01 01:13:24;;;;;;;31.27;19.48;;;;;;;;;;6239130;28;20056;-69
2020/12/01 01:16:25;;;;;;;32.70;21.33;;;;;;;;;;6213064;28;20689;-69
2020/12/01 01:19:27;;;;;;;30.75;20.00;;;;;;;;;;6234253;28;20049;-69
2020/12/01 01:22:28;;;;;;;31.25;19.92;;;;;;;;;;6225254;28;20067;-70
2020/12/01 01:25:29;;;;;;;27.67;19.08;;;;;;;;;;6235379;28;20628;-70
2020/12/01 01:28:31;;;;;;;33.78;20.92;;;;;;;;;;6235651;28;20139;-69
2020/12/01 01:31:32;;;;;;;28.23;19.05;;;;;;;;;;6229896;28;20086;-70
2020/12/01 01:34:34;;;;;;;31.20;18.88;;;;;;;;;;6220900;28;20053;-71
2020/12/01 01:37:35;;;;;;;27.15;17.98;;;;;;;;;;6221768;28;20077;-71
2020/12/01 01:40:36;;;;;;;26.25;17.33;;;;;;;;;;6230513;28;20053;-69
2020/12/01 01:43:38;;;;;;;27.92;18.02;;;;;;;;;;6229936;28;20065;-69
2020/12/01 01:46:41;;;;;;;29.42;19.15;;;;;;;;;;6203680;28;20050;-69
2020/12/01 01:49:43;;;;;;;32.22;21.08;;;;;;;;;;6224796;28;20058;-69
2020/12/01 01:52:48;;;;;;;33.22;20.27;;;;;;;;;;6213183;28;20034;-69
2020/12/01 01:55:52;;;;;;;28.38;18.83;;;;;;;;;;6216486;28;20502;-70
2020/12/01 01:58:54;;;;;;;28.92;18.65;;;;;;;;;;6239033;28;20107;-70
2020/12/01 02:01:56;;;;;;;31.80;19.60;;;;;;;;;;6237055;28;20049;-70
2020/12/01 02:04:58;;;;;;;28.63;18.60;;;;;;;;;;6223935;28;20146;-70
2020/12/01 02:08:00;;;;;;;28.15;17.55;;;;;;;;;;6210348;28;20512;-70
2020/12/01 02:11:01;;;;;;;31.02;18.05;;;;;;;;;;6213347;28;20134;-71
2020/12/01 02:14:06;;;;;;;25.45;17.17;;;;;;;;;;6228829;28;20125;-71
2020/12/01 02:17:19;;;;;;;28.75;18.83;;;;;;;;;;6211425;28;20046;-71
2020/12/01 02:20:21;;;;;;;28.73;17.70;;;;;;;;;;6218277;28;20168;-70
2020/12/01 02:23:24;;;;;;;26.00;17.55;;;;;;;;;;6211838;28;20048;-69
2020/12/01 02:26:26;;;;;;;27.75;18.05;;;;;;;;;;6212950;28;20077;-71
2020/12/01 02:29:30;;;;;;;27.35;17.23;;;;;;;;;;6217058;28;20129;-71
2020/12/01 02:32:31;;;;;;;29.57;17.97;;;;;;;;;;6217125;28;20994;-70
2020/12/01 02:35:32;;;;;;;26.23;17.90;;;;;;;;;;6209114;28;20164;-71
2020/12/01 02:38:33;;;;;;;27.08;18.15;;;;;;;;;;6210678;28;20095;-71
2020/12/01 02:41:35;;;;;;;26.95;17.45;;;;;;;;;;6232348;28;20136;-72
2020/12/01 02:44:36;;;;;;;29.80;17.85;;;;;;;;;;6242553;28;20041;-71
2020/12/01 02:47:37;;;;;;;27.50;17.88;;;;;;;;;;6234645;28;20091;-71
2020/12/01 02:50:38;;;;;;;28.08;17.48;;;;;;;;;;6234118;28;20071;-71
2020/12/01 02:53:39;;;;;;;29.63;17.80;;;;;;;;;;6231155;28;20129;-72
2020/12/01 02:56:41;;;;;;;25.92;17.48;;;;;;;;;;6242524;28;20136;-70
2020/12/01 02:59:42;;;;;;;28.95;17.98;;;;;;;;;;6228332;28;20054;-71
2020/12/01 03:02:43;;;;;;;26.77;17.63;;;;;;;;;;6235018;28;20280;-69
2020/12/01 03:05:45;;;;;;;27.52;17.90;;;;;;;;;;6232721;28;20185;-71
2020/12/01 03:08:46;;;;;;;26.42;16.75;;;;;;;;;;6231810;28;20187;-71
2020/12/01 03:11:49;;;;;;;28.65;18.15;;;;;;;;;;6236028;28;20045;-69
2020/12/01 03:14:50;;;;;;;25.65;16.92;;;;;;;;;;6236391;28;20052;-70
2020/12/01 03:17:52;;;;;;;27.48;17.05;;;;;;;;;;6240047;28;21035;-69
2020/12/01 03:20:53;;;;;;;26.67;17.02;;;;;;;;;;6238399;28;20141;-69
2020/12/01 03:23:54;;;;;;;24.50;16.50;;;;;;;;;;6238187;28;20164;-68
2020/12/01 03:26:56;;;;;;;27.00;17.35;;;;;;;;;;6240144;28;20643;-68
2020/12/01 03:29:57;;;;;;;27.65;17.40;;;;;;;;;;6237363;28;20087;-65
2020/12/01 03:32:58;;;;;;;28.15;18.25;;;;;;;;;;6243799;28;20049;-67
2020/12/01 03:35:59;;;;;;;28.05;18.05;;;;;;;;;;6238719;28;20061;-69
2020/12/01 03:39:00;;;;;;;29.17;18.05;;;;;;;;;;6242271;28;20179;-69
2020/12/01 03:42:02;;;;;;;29.98;19.10;;;;;;;;;;6242011;28;20049;-68
2020/12/01 03:45:03;;;;;;;33.53;20.83;;;;;;;;;;6242132;28;20156;-69
2020/12/01 03:48:04;;;;;;;31.42;19.58;;;;;;;;;;6237878;28;20080;-70
2020/12/01 03:51:05;;;;;;;29.52;19.30;;;;;;;;;;6238331;28;20144;-69
2020/12/01 03:54:06;;;;;;;31.67;19.30;;;;;;;;;;6236651;28;20077;-70
2020/12/01 03:57:08;;;;;;;32.78;20.02;;;;;;;;;;6240373;28;20034;-69
2020/12/01 04:00:11;;;;;;;29.23;19.38;;;;;;;;;;6236009;28;20550;-69
2020/12/01 04:03:12;;;;;;;30.75;20.15;;;;;;;;;;6232878;28;20053;-70
2020/12/01 04:06:13;;;;;;;30.40;19.80;;;;;;;;;;6226212;28;20143;-69
2020/12/01 04:09:14;;;;;;;30.58;20.75;;;;;;;;;;6213503;28;20499;-69
2020/12/01 04:12:16;;;;;;;31.92;19.88;;;;;;;;;;6245018;28;20171;-69
2020/12/01 04:15:18;;;;;;;32.55;20.67;;;;;;;;;;6239478;28;20045;-69
2020/12/01 04:18:19;;;;;;;31.80;20.02;;;;;;;;;;6226218;28;20492;-69
2020/12/01 04:21:21;;;;;;;35.22;20.38;;;;;;;;;;6242420;28;20124;-69
2020/12/01 04:24:22;;;;;;;35.42;21.13;;;;;;;;;;6234997;28;20490;-69
2020/12/01 04:27:23;;;;;;;35.17;20.58;;;;;;;;;;6235894;28;20042;-69
2020/12/01 04:30:25;;;;;;;32.15;20.65;;;;;;;;;;6237435;28;20270;-69
2020/12/01 04:33:26;;;;;;;33.88;20.92;;;;;;;;;;6237737;28;20184;-69
2020/12/01 04:36:27;;;;;;;35.83;21.38;;;;;;;;;;6238482;28;20049;-69
2020/12/01 04:39:29;;;;;;;29.40;19.70;;;;;;;;;;6238912;28;20095;-69
2020/12/01 04:42:30;;;;;;;40.97;21.33;;;;;;;;;;6243339;28;20128;-68
2020/12/01 04:45:32;;;;;;;37.30;22.35;;;;;;;;;;6221212;28;20260;-70
2020/12/01 04:48:37;;;;;;;36.13;21.27;;;;;;;;;;6233743;28;20128;-69
2020/12/01 04:51:51;;;;;;;34.13;21.73;;;;;;;;;;6237074;28;20080;-70
2020/12/01 04:55:25;;;;;;;34.95;21.75;;;;;;;;;;6238504;28;20065;-70
2020/12/01 04:58:59;;;;;;;33.55;20.73;;;;;;;;;;6241144;28;20568;-70
2020/12/01 05:02:45;;;;;;;32.53;20.77;;;;;;;;;;6222303;28;20038;-70
2020/12/01 05:06:03;;;;;;;36.75;21.42;;;;;;;;;;6216359;28;20053;-70
2020/12/01 05:09:06;;;;;;;35.80;20.98;;;;;;;;;;6231384;28;20049;-70
2020/12/01 05:12:11;;;;;;;37.15;21.60;;;;;;;;;;6242967;28;20421;-69
2020/12/01 05:15:17;;;;;;;36.78;21.65;;;;;;;;;;6241935;28;20898;-69
2020/12/01 05:18:21;;;;;;;35.95;21.70;;;;;;;;;;6231320;28;20041;-70
2020/12/01 05:21:25;;;;;;;36.17;21.25;;;;;;;;;;6215374;28;20132;-70
2020/12/01 05:24:36;;;;;;;34.90;21.58;;;;;;;;;;6234431;28;20135;-70
2020/12/01 05:27:37;;;;;;;31.92;21.70;;;;;;;;;;6232372;28;20041;-70
2020/12/01 05:30:40;;;;;;;32.55;21.33;;;;;;;;;;6232966;28;20087;-70
2020/12/01 05:33:41;;;;;;;31.52;20.45;;;;;;;;;;6237068;28;20119;-70
2020/12/01 05:36:42;;;;;;;35.85;21.73;;;;;;;;;;6235070;28;20136;-71
2020/12/01 05:39:45;;;;;;;36.83;21.73;;;;;;;;;;6213400;28;20046;-70
2020/12/01 05:42:47;;;;;;;36.00;21.27;;;;;;;;;;6210767;28;20050;-70
2020/12/01 05:45:49;;;;;;;35.75;21.33;;;;;;;;;;6232219;28;20485;-70
2020/12/01 05:48:57;;;;;;;32.92;20.55;;;;;;;;;;6235115;28;20149;-69
2020/12/01 05:52:03;;;;;;;34.22;22.45;;;;;;;;;;6227124;28;20140;-70
2020/12/01 05:55:15;;;;;;;32.53;20.25;;;;;;;;;;6206338;28;20050;-70
2020/12/01 05:58:16;;;;;;;34.55;21.38;;;;;;;;;;6226621;28;20042;-68
2020/12/01 06:01:18;;;;;;;32.22;21.35;;;;;;;;;;6230124;28;20045;-68
2020/12/01 06:04:21;;;;;;;34.65;20.55;;;;;;;;;;6239942;28;20489;-69
2020/12/01 06:07:25;;;;;;;34.22;20.92;;;;;;;;;;6218796;28;20042;-68
2020/12/01 06:10:30;;;;;;;;;;;;;;;;;;6220835;28;20068;-68
2020/12/01 06:13:36;;;;;;;32.05;19.80;;;;;;;;;;6230497;28;19929;-68
2020/12/01 06:16:49;;;;;;;35.17;20.27;;;;;;;;;;6237438;28;20079;-69
2020/12/01 06:19:55;;;;;;;32.33;20.95;;;;;;;;;;6239131;28;20059;-68
2020/12/01 06:23:14;;;;;;;34.72;20.67;;;;;;;;;;6238480;28;20103;-68
2020/12/01 06:26:32;;;;;;;32.58;20.13;;;;;;;;;;6211558;28;20144;-68
2020/12/01 06:30:04;;;;;;;31.27;20.20;;;;;;;;;;6208311;28;20129;-69
2020/12/01 06:33:31;;;;;;;32.60;20.13;;;;;;;;;;6225899;28;20049;-68
2020/12/01 06:37:13;;;;;;;33.33;20.17;;;;;;;;;;6216707;28;20136;-68
2020/12/01 06:40:26;;;;;;;33.53;19.42;;;;;;;;;;6197687;28;20195;-69
2020/12/01 06:43:37;;;;;;;31.20;19.08;;;;;;;;;;6207186;28;20069;-68
2020/12/01 06:46:42;;;;;;;34.08;19.95;;;;;;;;;;6206915;28;20038;-69
2020/12/01 06:49:43;;;;;;;;;;;;;;;;;;6209235;28;20129;-69
2020/12/01 06:52:54;;;;;;;28.77;19.23;;;;;;;;;;6207700;28;20068;-68
2020/12/01 06:55:56;;;;;;;30.98;19.17;;;;;;;;;;6215432;28;20046;-68
2020/12/01 06:59:05;;;;;;;34.20;20.23;;;;;;;;;;6222941;28;20503;-69
2020/12/01 07:02:16;;;;;;;34.58;20.33;;;;;;;;;;6239927;28;20134;-67
2020/12/01 07:05:30;;;;;;;36.15;20.52;;;;;;;;;;6239791;28;20176;-66
2020/12/01 07:08:31;;;;;;;31.87;19.13;;;;;;;;;;6236472;28;20045;-67
2020/12/01 07:11:34;;;;;;;31.13;20.13;;;;;;;;;;6231222;28;20128;-67
2020/12/01 07:14:39;;;;;;;33.33;20.45;;;;;;;;;;6221928;28;20384;-67
2020/12/01 07:17:51;;;;;;;29.90;19.25;;;;;;;;;;6227981;28;20057;-67
2020/12/01 07:21:09;;;;;;;30.52;20.67;;;;;;;;;;6225043;28;20037;-67
2020/12/01 07:24:16;;;;;;;34.75;20.92;;;;;;;;;;6215053;28;20038;-67
2020/12/01 07:27:19;;;;;;;32.05;19.45;;;;;;;;;;6221054;28;20049;-68
2020/12/01 07:30:23;;;;;;;29.10;19.48;;;;;;;;;;6232965;28;20045;-67
2020/12/01 07:33:28;;;;;;;35.20;20.48;;;;;;;;;;6215243;28;20060;-67
2020/12/01 07:36:34;;;;;;;38.22;19.70;;;;;;;;;;6236964;28;20125;-68
2020/12/01 07:39:36;;;;;;;32.25;19.45;;;;;;;;;;6238963;28;20041;-68
2020/12/01 07:42:37;;;;;;;32.90;19.00;;;;;;;;;;6236089;28;20076;-68
2020/12/01 07:45:38;;;;;;;29.38;19.63;;;;;;;;;;6233504;28;21485;-68
2020/12/01 07:48:39;;;;;;;32.67;20.05;;;;;;;;;;6240061;28;20049;-68
2020/12/01 07:51:41;;;;;;;33.22;20.25;;;;;;;;;;6218204;28;20580;-68
2020/12/01 07:54:46;;;;;;;33.30;20.40;;;;;;;;;;6216181;28;20065;-69
2020/12/01 07:57:55;;;;;;;;;;;;;;;;;;6215987;28;20121;-70
2020/12/01 08:00:59;;;;;;;34.65;21.05;;;;;;;;;;6222901;28;20183;-68
2020/12/01 08:04:06;;;;;;;42.35;22.85;;;;;;;;;;6239128;28;20222;-68
2020/12/01 08:07:13;;;;;;;44.85;23.98;;;;;;;;;;6222011;28;20050;-69
2020/12/01 08:10:15;;;;;;;48.58;25.70;;;;;;;;;;6211841;28;20049;-66
2020/12/01 08:13:17;;;;;;;49.85;24.77;;;;;;;;;;6212846;28;20054;-66
2020/12/01 08:16:20;;;;;;;45.85;24.95;;;;;;;;;;6215424;28;20390;-67
2020/12/01 08:19:21;;;;;;;44.20;24.45;;;;;;;;;;6213049;28;20124;-67
2020/12/01 08:22:27;;;;;;;48.47;25.05;;;;;;;;;;6210488;28;20050;-67
2020/12/01 08:25:30;;;;;;;47.33;24.05;;;;;;;;;;6215734;28;20129;-67
2020/12/01 08:28:34;;;;;;;41.88;24.23;;;;;;;;;;6213038;28;20521;-67
2020/12/01 08:31:45;;;;;;;40.03;23.35;;;;;;;;;;6229680;28;20080;-67
2020/12/01 08:34:51;;;;;;;45.22;23.48;;;;;;;;;;6237279;28;20045;-67
2020/12/01 08:38:02;;;;;;;36.05;22.50;;;;;;;;;;6233888;28;20045;-67
2020/12/01 08:41:09;;;;;;;40.05;22.73;;;;;;;;;;6237224;28;20049;-67
2020/12/01 08:44:18;;;;;;;38.70;21.95;;;;;;;;;;6204515;28;20096;-67
2020/12/01 08:47:21;;;;;;;38.53;22.00;;;;;;;;;;6213063;28;20200;-68
2020/12/01 08:50:27;;;;;;;36.07;21.50;;;;;;;;;;6235748;28;20053;-69
2020/12/01 08:53:28;;;;;;;38.38;21.85;;;;;;;;;;6230562;28;20171;-68
2020/12/01 08:56:39;;;;;;;37.75;21.13;;;;;;;;;;6230520;28;20136;-68
2020/12/01 08:59:46;;;;;;;36.30;21.95;;;;;;;;;;6232076;28;20636;-69
2020/12/01 09:02:49;;;;;;;44.78;22.52;;;;;;;;;;6220456;28;20038;-69
2020/12/01 09:05:51;;;;;;;37.47;22.87;;;;;;;;;;6232744;28;20037;-69
2020/12/01 09:08:57;;;;;;;42.50;23.98;;;;;;;;;;6239012;28;20468;-69
2020/12/01 09:12:16;;;;;;;39.03;22.17;;;;;;;;;;6241546;28;20440;-67
2020/12/01 09:15:33;;;;;;;41.30;22.88;;;;;;;;;;6240358;28;20045;-67
2020/12/01 09:19:06;;;;;;;40.40;22.27;;;;;;;;;;6234283;28;20045;-67
2020/12/01 09:22:08;;;;;;;44.30;22.40;;;;;;;;;;6234772;28;20622;-67
2020/12/01 09:25:19;;;;;;;41.33;24.08;;;;;;;;;;6235226;28;20092;-66
2020/12/01 09:28:23;;;;;;;40.15;23.00;;;;;;;;;;6234477;28;20141;-67
2020/12/01 09:31:25;;;;;;;39.75;22.73;;;;;;;;;;6237911;28;20136;-67
2020/12/01 09:34:31;;;;;;;39.53;23.38;;;;;;;;;;6242005;28;20084;-67
2020/12/01 09:37:33;;;;;;;36.17;20.77;;;;;;;;;;6232276;28;20128;-67
2020/12/01 09:40:36;;;;;;;26.88;17.00;;;;;;;;;;6226305;28;20143;-67
2020/12/01 09:43:40;;;;;;;28.52;17.92;;;;;;;;;;6233840;28;20111;-67
2020/12/01 09:46:51;;;;;;;27.15;16.83;;;;;;;;;;6241442;28;20056;-67
2020/12/01 09:49:53;;;;;;;32.55;18.67;;;;;;;;;;6217841;28;20051;-68
2020/12/01 09:53:11;;;;;;;27.63;16.90;;;;;;;;;;6219479;28;20200;-68
2020/12/01 09:56:36;;;;;;;32.28;18.65;;;;;;;;;;6235448;28;20057;-68
2020/12/01 09:59:45;;;;;;;35.13;19.45;;;;;;;;;;6209961;28;20049;-68
2020/12/01 10:09:57;;;;;;;28.67;18.95;;;;;;;;;;6234276;28;20111;-68
2020/12/01 10:13:05;;;;;;;28.58;18.10;;;;;;;;;;6225981;28;20682;-67
2020/12/01 10:19:52;;;;;;;30.85;19.02;;;;;;;;;;6231373;28;20053;-68
2020/12/01 10:36:25;;;;;;;35.25;21.02;;;;;;;;;;6190850;28;20049;-68
2020/12/01 10:39:27;;;;;;;37.30;21.70;;;;;;;;;;6213965;28;20103;-67
2020/12/01 10:42:28;;;;;;;34.30;22.30;;;;;;;;;;6209118;28;20042;-68
2020/12/01 10:45:30;;;;;;;30.33;20.27;;;;;;;;;;6227711;28;20053;-68
2020/12/01 10:48:31;;;;;;;35.47;19.92;;;;;;;;;;6229103;28;20084;-67
2020/12/01 10:51:33;;;;;;;33.65;21.63;;;;;;;;;;6216489;28;20183;-68
2020/12/01 10:54:35;;;;;;;33.92;19.83;;;;;;;;;;6209039;28;20053;-68
2020/12/01 10:57:36;;;;;;;36.40;20.38;;;;;;;;;;6227974;28;20111;-68
2020/12/01 11:00:37;;;;;;;31.95;20.23;;;;;;;;;;6226213;28;20133;-68
2020/12/01 11:03:38;;;;;;;34.92;21.27;;;;;;;;;;6235899;28;20056;-67
2020/12/01 11:06:39;;;;;;;36.08;21.25;;;;;;;;;;6234887;28;20060;-68
2020/12/01 11:09:41;;;;;;;34.15;20.23;;;;;;;;;;6233763;28;20554;-68
2020/12/01 11:12:42;;;;;;;37.83;20.45;;;;;;;;;;6221664;28;20140;-68
2020/12/01 11:15:43;;;;;;;32.47;20.80;;;;;;;;;;6211917;28;20129;-68
2020/12/01 11:18:44;;;;;;;30.33;19.95;;;;;;;;;;6212636;28;20103;-68
2020/12/01 11:21:45;;;;;;;33.15;20.60;;;;;;;;;;6235818;28;20141;-68
2020/12/01 11:24:47;;;;;;;31.35;20.30;;;;;;;;;;6232104;28;20103;-68
2020/12/01 11:27:49;;;;;;;35.60;21.58;;;;;;;;;;6231787;28;20106;-68
2020/12/01 11:30:50;;;;;;;34.03;20.52;;;;;;;;;;6234004;28;20128;-68
2020/12/01 11:33:59;;;;;;;31.15;20.08;;;;;;;;;;6231622;28;20144;-67
2020/12/01 11:37:00;;;;;;;33.42;20.33;;;;;;;;;;6234405;28;20188;-68
2020/12/01 11:40:03;;;;;;;30.95;20.20;;;;;;;;;;6224171;28;20132;-67
2020/12/01 11:43:04;;;;;;;30.13;18.55;;;;;;;;;;6224062;28;20045;-67
2020/12/01 11:46:05;;;;;;;30.63;18.27;;;;;;;;;;6229478;28;20183;-67
2020/12/01 11:49:06;;;;;;;31.65;18.23;;;;;;;;;;6232613;28;20042;-68
2020/12/01 11:52:07;;;;;;;29.77;17.67;;;;;;;;;;6235714;28;20132;-68
2020/12/01 11:55:09;;;;;;;34.63;18.20;;;;;;;;;;6234039;28;20087;-68
2020/12/01 11:58:10;;;;;;;35.20;19.52;;;;;;;;;;6227790;28;20046;-69
2020/12/01 12:01:11;;;;;;;31.70;17.35;;;;;;;;;;6235239;28;20041;-68
2020/12/01 12:04:13;;;;;;;37.15;19.75;;;;;;;;;;6229775;28;20089;-70
2020/12/01 12:07:14;;;;;;;29.55;18.23;;;;;;;;;;6207012;28;20079;-69
2020/12/01 12:10:16;;;;;;;37.50;19.35;;;;;;;;;;6222094;28;20081;-70
2020/12/01 12:13:17;;;;;;;31.77;20.15;;;;;;;;;;6240452;28;20191;-68
2020/12/01 12:16:19;;;;;;;35.53;19.30;;;;;;;;;;6233186;28;20042;-66
2020/12/01 12:19:20;;;;;;;30.90;19.20;;;;;;;;;;6209338;28;20402;-68
2020/12/01 12:22:21;;;;;;;27.30;17.13;;;;;;;;;;6217795;28;22692;-68
2020/12/01 12:25:23;;;;;;;29.25;16.83;;;;;;;;;;6231519;28;20141;-71
2020/12/01 12:28:25;;;;;;;28.75;16.17;;;;;;;;;;6224051;28;20037;-71
2020/12/01 12:31:26;;;;;;;27.67;16.30;;;;;;;;;;6210325;28;20042;-69
2020/12/01 12:34:27;;;;;;;29.10;16.63;;;;;;;;;;6210012;28;20061;-68
2020/12/01 12:37:28;;;;;;;25.85;15.57;;;;;;;;;;6214504;28;20034;-68
2020/12/01 12:40:30;;;;;;;32.03;16.50;;;;;;;;;;6237915;28;20046;-68
2020/12/01 12:43:32;;;;;;;26.20;15.88;;;;;;;;;;6241047;28;20180;-68
2020/12/01 12:46:33;;;;;;;27.45;16.63;;;;;;;;;;6231376;28;20049;-69
2020/12/01 12:49:34;;;;;;;30.45;16.13;;;;;;;;;;6216176;28;20095;-68
2020/12/01 12:52:35;;;;;;;34.05;18.13;;;;;;;;;;6218121;28;20117;-68
2020/12/01 12:55:37;;;;;;;29.20;16.50;;;;;;;;;;6234304;28;20046;-68
2020/12/01 12:58:38;;;;;;;30.88;16.45;;;;;;;;;;6240230;28;20488;-68
2020/12/01 13:01:39;;;;;;;37.30;16.75;;;;;;;;;;6227736;28;20129;-68
2020/12/01 13:04:40;;;;;;;32.45;17.15;;;;;;;;;;6216262;28;20103;-68
2020/12/01 13:07:41;;;;;;;29.35;15.77;;;;;;;;;;6214188;28;20143;-68
2020/12/01 13:10:43;;;;;;;27.70;16.73;;;;;;;;;;6213383;28;20065;-68
2020/12/01 13:13:45;;;;;;;23.85;15.45;;;;;;;;;;6227514;28;20192;-68
2020/12/01 13:16:47;;;;;;;25.05;15.07;;;;;;;;;;6218647;28;20081;-68
2020/12/01 13:19:48;;;;;;;28.48;14.70;;;;;;;;;;6212308;28;20137;-68
2020/12/01 13:22:49;;;;;;;27.60;16.17;;;;;;;;;;6215516;28;20042;-68
2020/12/01 13:25:51;;;;;;;28.55;16.02;;;;;;;;;;6218070;28;20073;-68
2020/12/01 13:28:52;;;;;;;28.15;16.65;;;;;;;;;;6219469;28;20050;-68
2020/12/01 13:31:53;;;;;;;24.92;16.55;;;;;;;;;;6215187;28;20200;-68
2020/12/01 13:34:55;;;;;;;24.48;15.75;;;;;;;;;;6218576;28;20481;-67
2020/12/01 13:37:56;;;;;;;26.67;16.65;;;;;;;;;;6219527;28;20120;-68
2020/12/01 13:40:58;;;;;;;28.45;16.25;;;;;;;;;;6214961;28;20054;-69
2020/12/01 13:43:59;;;;;;;30.50;17.23;;;;;;;;;;6218703;28;20037;-69
2020/12/01 13:47:00;;;;;;;26.77;16.08;;;;;;;;;;6240542;28;20441;-68
2020/12/01 13:50:01;;;;;;;26.77;16.08;;;;;;;;;;6214026;28;20572;-68
2020/12/01 13:53:02;;;;;;;28.65;17.40;;;;;;;;;;6229723;28;20057;-68
2020/12/01 13:56:05;;;;;;;28.80;16.50;;;;;;;;;;6241450;28;20052;-69
2020/12/01 13:59:06;;;;;;;46.08;18.15;;;;;;;;;;6241744;28;20045;-69
2020/12/01 14:02:08;;;;;;;27.85;15.88;;;;;;;;;;6239786;28;20131;-68
2020/12/01 14:05:09;;;;;;;27.73;16.80;;;;;;;;;;6235235;28;20054;-68
2020/12/01 14:08:10;;;;;;;27.92;16.40;;;;;;;;;;6237360;28;20561;-68
2020/12/01 14:11:13;;;;;;;27.45;16.38;;;;;;;;;;6236887;28;20124;-68
2020/12/01 14:14:14;;;;;;;28.67;16.58;;;;;;;;;;6239086;28;20817;-68
2020/12/01 14:17:15;;;;;;;26.63;16.92;;;;;;;;;;6231548;28;20094;-69
2020/12/01 14:20:18;;;;;;;29.35;17.55;;;;;;;;;;6235772;28;20084;-68
2020/12/01 14:23:19;;;;;;;29.45;16.92;;;;;;;;;;6236261;28;20053;-68
2020/12/01 14:26:21;;;;;;;31.42;17.35;;;;;;;;;;6229871;28;20137;-68
2020/12/01 14:29:22;;;;;;;32.70;18.02;;;;;;;;;;6211734;28;20104;-68
2020/12/01 14:32:23;;;;;;;29.08;18.23;;;;;;;;;;6212788;28;20323;-67
2020/12/01 14:35:26;;;;;;;32.40;18.00;;;;;;;;;;6213251;28;20228;-67
2020/12/01 14:38:27;;;;;;;35.25;18.77;;;;;;;;;;6213341;28;20501;-67
2020/12/01 14:41:29;;;;;;;30.35;17.90;;;;;;;;;;6215780;28;20682;-67
2020/12/01 14:44:30;;;;;;;30.58;17.23;;;;;;;;;;6212746;28;20061;-66
2020/12/01 14:47:55;;;;;;;32.20;18.40;;;;;;;;;;6208777;28;20077;-67
2020/12/01 14:51:36;;;;;;;30.02;17.17;;;;;;;;;;6211398;28;20685;-68
2020/12/01 14:54:45;;;;;;;25.90;15.40;;;;;;;;;;6202969;28;20743;-67
2020/12/01 14:58:14;;;;;;;26.42;15.68;;;;;;;;;;6214845;28;20124;-69
2020/12/01 15:01:22;;;;;;;23.10;14.10;;;;;;;;;;6215292;28;20061;-69
2020/12/01 15:04:39;;;;;;;23.48;14.45;;;;;;;;;;6237152;28;20053;-68
2020/12/01 15:08:10;;;;;;;27.17;14.05;;;;;;;;;;6239152;28;20072;-69
2020/12/01 15:11:19;;;;;;;22.58;14.00;;;;;;;;;;6236557;28;20045;-69
2020/12/01 15:14:21;;;;;;;27.27;14.75;;;;;;;;;;6217058;28;20056;-69
2020/12/01 15:17:26;;;;;;;35.95;15.88;;;;;;;;;;6233243;28;20079;-69
2020/12/01 15:20:30;;;;;;;32.60;17.38;;;;;;;;;;6237225;28;20060;-69
2020/12/01 15:23:33;;;;;;;25.50;15.32;;;;;;;;;;6235620;28;20413;-68
2020/12/01 15:26:35;;;;;;;27.45;16.27;;;;;;;;;;6226750;28;20081;-68
2020/12/01 15:29:39;;;;;;;32.05;17.85;;;;;;;;;;6236438;28;20068;-68
2020/12/01 15:32:40;;;;;;;29.80;17.45;;;;;;;;;;6235576;28;20773;-68
2020/12/01 15:35:43;;;;;;;29.30;16.98;;;;;;;;;;6228076;28;20049;-68
2020/12/01 15:38:44;;;;;;;28.38;17.08;;;;;;;;;;6228572;28;20278;-68
2020/12/01 15:41:46;;;;;;;30.35;18.20;;;;;;;;;;6233221;28;20579;-68
2020/12/01 15:44:47;;;;;;;37.90;17.60;;;;;;;;;;6233177;28;20635;-69
2020/12/01 15:47:49;;;;;;;26.90;15.98;;;;;;;;;;6233229;28;20095;-67
2020/12/01 15:51:01;;;;;;;27.17;16.17;;;;;;;;;;6222863;28;20198;-70
2020/12/01 15:54:33;;;;;;;25.70;15.57;;;;;;;;;;6231615;28;20611;-69
2020/12/01 15:57:49;;;;;;;23.30;13.82;;;;;;;;;;6230350;28;20156;-69
2020/12/01 16:00:56;;;;;;;24.15;15.60;;;;;;;;;;6231549;28;20103;-70
2020/12/01 16:04:24;;;;;;;25.92;15.20;;;;;;;;;;6225609;28;20057;-68
2020/12/01 16:08:05;;;;;;;29.13;15.07;;;;;;;;;;6206862;28;20042;-68
2020/12/01 16:11:31;;;;;;;28.58;16.30;;;;;;;;;;6207908;28;20048;-68
2020/12/01 16:15:05;;;;;;;28.80;15.13;;;;;;;;;;6216424;28;20115;-68
2020/12/01 16:18:11;;;;;;;29.02;15.48;;;;;;;;;;6237180;28;20041;-68
2020/12/01 16:21:20;;;;;;;25.67;15.40;;;;;;;;;;6226339;28;20111;-69
2020/12/01 16:24:25;;;;;;;24.83;15.60;;;;;;;;;;6209794;28;20046;-69
2020/12/01 16:27:42;;;;;;;21.88;13.75;;;;;;;;;;6214215;28;20534;-68
2020/12/01 16:30:43;;;;;;;21.92;13.60;;;;;;;;;;6226886;28;20095;-69
2020/12/01 16:33:45;;;;;;;22.17;13.63;;;;;;;;;;6228636;28;20127;-68
2020/12/01 16:37:00;;;;;;;21.40;12.57;;;;;;;;;;6238120;28;20140;-68
2020/12/01 16:40:07;;;;;;;24.23;13.90;;;;;;;;;;6237778;28;20065;-67
2020/12/01 16:43:45;;;;;;;20.77;13.07;;;;;;;;;;6230466;28;20192;-68
2020/12/01 16:47:22;;;;;;;24.23;13.52;;;;;;;;;;6228710;28;20124;-66
2020/12/01 16:50:32;;;;;;;23.10;13.38;;;;;;;;;;6223584;28;20046;-70
2020/12/01 16:54:00;;;;;;;24.90;13.20;;;;;;;;;;6243735;28;20061;-70
2020/12/01 16:57:04;;;;;;;22.25;12.68;;;;;;;;;;6242715;28;20120;-67
2020/12/01 17:00:14;;;;;;;20.50;12.27;;;;;;;;;;6237090;28;20086;-68
2020/12/01 17:03:37;;;;;;;20.05;11.95;;;;;;;;;;6238036;28;20083;-71
2020/12/01 17:07:11;;;;;;;19.55;12.55;;;;;;;;;;6235817;28;20507;-72
2020/12/01 17:10:15;;;;;;;22.00;13.23;;;;;;;;;;6229738;28;20058;-70
2020/12/01 17:13:53;;;;;;;23.93;14.30;;;;;;;;;;6220461;28;20545;-71
2020/12/01 17:17:23;;;;;;;22.67;12.90;;;;;;;;;;5881705;28;10000541;-70
2020/12/01 17:20:24;;;;;;;24.00;12.85;;;;;;;;;;6228284;28;20041;-70
2020/12/01 17:23:28;;;;;;;22.83;14.27;;;;;;;;;;6233638;28;20049;-70
2020/12/01 17:26:29;;;;;;;21.55;13.90;;;;;;;;;;6237391;28;20076;-70
2020/12/01 17:29:33;;;;;;;23.70;13.88;;;;;;;;;;6216720;28;20134;-70
2020/12/01 17:32:50;;;;;;;25.73;15.02;;;;;;;;;;6235847;28;20104;-70
2020/12/01 17:36:02;;;;;;;23.90;14.23;;;;;;;;;;6235952;28;20049;-70
2020/12/01 17:39:10;;;;;;;24.95;14.90;;;;;;;;;;6231420;28;20072;-69
2020/12/01 17:42:17;;;;;;;20.52;13.07;;;;;;;;;;6231179;28;20084;-69
2020/12/01 17:45:25;;;;;;;23.92;13.75;;;;;;;;;;6228420;28;20057;-69
2020/12/01 17:48:31;;;;;;;24.92;13.88;;;;;;;;;;6233675;28;20202;-70
2020/12/01 17:51:37;;;;;;;23.52;14.88;;;;;;;;;;6235833;28;20049;-66
2020/12/01 17:54:39;;;;;;;23.17;14.18;;;;;;;;;;6243642;28;20132;-68
2020/12/01 17:57:40;;;;;;;23.27;14.50;;;;;;;;;;6227335;28;20581;-68
2020/12/01 18:00:41;;;;;;;26.20;15.43;;;;;;;;;;6232839;28;20091;-69
2020/12/01 18:03:43;;;;;;;24.33;15.10;;;;;;;;;;6238717;28;20153;-69
2020/12/01 18:06:45;;;;;;;24.52;14.68;;;;;;;;;;6235721;28;20058;-69
2020/12/01 18:09:48;;;;;;;25.80;15.35;;;;;;;;;;6217035;28;20875;-69
2020/12/01 18:12:59;;;;;;;25.98;15.02;;;;;;;;;;6214184;28;20042;-69
2020/12/01 18:16:03;;;;;;;25.45;15.50;;;;;;;;;;6212637;28;20136;-69
2020/12/01 18:19:13;;;;;;;30.08;15.65;;;;;;;;;;6217638;28;20821;-68
2020/12/01 18:22:19;;;;;;;27.27;15.60;;;;;;;;;;6218631;28;20136;-68
2020/12/01 18:25:23;;;;;;;26.35;15.48;;;;;;;;;;6225477;28;20157;-68